createdAt,value
2023-03-03T00:02:05.312Z,53.47
2023-03-03T00:04:53.940Z,52.50
2023-03-03T00:07:44.750Z,56.73
2023-03-03T00:10:33.515Z,55.90
2023-03-03T00:13:23.568Z,51.63
2023-03-03T00:16:16.419Z,58.90
2023-03-03T00:19:14.308Z,55.87
2023-03-03T00:22:02.797Z,55.83
2023-03-03T00:24:51.314Z,53.77
2023-03-03T00:27:39.792Z,52.97
2023-03-03T00:30:29.099Z,52.63
2023-03-03T00:33:28.014Z,51.87
2023-03-03T00:36:33.666Z,54.57
2023-03-03T00:39:28.532Z,54.23
2023-03-03T00:42:18.688Z,56.50
2023-03-03T00:45:24.155Z,56.60
2023-03-03T00:48:41.043Z,59.30
2023-03-03T00:51:33.088Z,54.73
2023-03-03T00:54:21.600Z,55.83
2023-03-03T00:57:10.147Z,60.37
2023-03-03T00:59:58.626Z,51.80
2023-03-03T01:02:48.428Z,48.17
2023-03-03T01:05:37.444Z,45.77
2023-03-03T01:08:27.315Z,49.47
2023-03-03T01:11:18.763Z,48.83
2023-03-03T01:14:07.340Z,52.80
2023-03-03T01:16:55.862Z,50.20
2023-03-03T01:19:44.334Z,49.83
2023-03-03T01:22:32.883Z,48.20
2023-03-03T01:25:22.757Z,54.30
2023-03-03T01:28:11.522Z,57.17
2023-03-03T01:31:02.134Z,51.13
2023-03-03T01:33:50.885Z,57.20
2023-03-03T01:36:39.386Z,63.37
2023-03-03T01:39:27.948Z,50.70
2023-03-03T01:42:17.838Z,53.30
2023-03-03T01:45:19.062Z,49.83
2023-03-03T01:48:11.013Z,48.57
2023-03-03T01:51:02.511Z,51.30
2023-03-03T01:53:52.749Z,48.10
2023-03-03T01:56:42.628Z,48.30
2023-03-03T01:59:35.337Z,54.83
2023-03-03T02:02:24.901Z,50.17
2023-03-03T02:05:13.931Z,49.67
2023-03-03T02:08:02.623Z,50.80
2023-03-03T02:10:51.604Z,56.43
2023-03-03T02:13:40.073Z,46.83
2023-03-03T02:16:30.188Z,49.47
2023-03-03T02:19:23.468Z,47.53
2023-03-03T02:22:12.461Z,49.20
2023-03-03T02:25:02.623Z,46.37
2023-03-03T02:27:52.502Z,47.97
2023-03-03T02:30:41.535Z,44.77
2023-03-03T02:33:30.532Z,46.90
2023-03-03T02:36:21.302Z,50.03
2023-03-03T02:39:12.472Z,50.33
2023-03-03T02:42:04.812Z,46.87
2023-03-03T02:44:54.675Z,45.93
2023-03-03T02:47:43.094Z,47.40
2023-03-03T02:50:31.558Z,52.13
2023-03-03T02:53:20.080Z,51.20
2023-03-03T02:56:09.912Z,48.83
2023-03-03T02:58:58.645Z,50.73
2023-03-03T03:01:48.825Z,43.13
2023-03-03T03:04:38.650Z,54.70
2023-03-03T03:07:27.389Z,44.27
2023-03-03T03:10:16.931Z,49.97
2023-03-03T03:13:05.439Z,44.50
2023-03-03T03:15:54.200Z,47.47
2023-03-03T03:18:44.022Z,47.47
2023-03-03T03:21:33.165Z,46.77
2023-03-03T03:24:21.654Z,49.80
2023-03-03T03:27:10.412Z,51.40
2023-03-03T03:29:58.902Z,49.40
2023-03-03T03:32:47.396Z,50.77
2023-03-03T03:35:37.906Z,50.93
2023-03-03T03:38:27.129Z,49.00
2023-03-03T03:41:15.676Z,54.33
2023-03-03T03:44:04.160Z,54.67
2023-03-03T03:46:52.609Z,51.97
2023-03-03T03:49:41.136Z,53.43
2023-03-03T03:52:31.009Z,46.37
2023-03-03T03:55:19.527Z,51.90
2023-03-03T03:58:08.017Z,49.80
2023-03-03T04:00:56.685Z,47.60
2023-03-03T04:03:45.176Z,50.93
2023-03-03T04:06:33.958Z,52.50
2023-03-03T04:09:23.861Z,49.07
2023-03-03T04:12:12.493Z,54.30
2023-03-03T04:15:00.936Z,44.67
2023-03-03T04:17:49.456Z,53.53
2023-03-03T04:20:37.973Z,51.97
2023-03-03T04:23:26.486Z,49.30
2023-03-03T04:26:16.304Z,50.27
2023-03-03T04:29:05.005Z,54.30
2023-03-03T04:31:53.578Z,54.23
2023-03-03T04:34:42.064Z,49.73
2023-03-03T04:37:30.566Z,51.83
2023-03-03T04:40:19.228Z,50.57
2023-03-03T04:43:09.161Z,52.90
2023-03-03T04:45:57.699Z,54.30
2023-03-03T04:48:46.489Z,51.00
2023-03-03T04:51:34.949Z,54.00
2023-03-03T04:54:23.417Z,49.90
2023-03-03T04:57:11.909Z,51.47
2023-03-03T05:00:01.747Z,55.20
2023-03-03T05:02:50.230Z,49.20
2023-03-03T05:05:38.732Z,53.83
2023-03-03T05:08:27.281Z,54.30
2023-03-03T05:11:15.949Z,52.27
2023-03-03T05:14:04.549Z,54.90
2023-03-03T05:16:54.590Z,59.77
2023-03-03T05:19:43.249Z,56.63
2023-03-03T05:22:31.700Z,51.33
2023-03-03T05:25:20.380Z,52.90
2023-03-03T05:28:08.863Z,57.37
2023-03-03T05:30:57.345Z,56.23
2023-03-03T05:33:47.307Z,57.50
2023-03-03T05:36:36.230Z,66.13
2023-03-03T05:39:24.878Z,56.87
2023-03-03T05:42:14.191Z,57.47
2023-03-03T05:45:02.731Z,57.80
2023-03-03T05:47:51.544Z,44.63
2023-03-03T05:50:41.382Z,47.03
2023-03-03T05:53:30.193Z,50.00
2023-03-03T05:56:18.802Z,51.67
2023-03-03T05:59:07.290Z,47.23
2023-03-03T06:01:55.804Z,53.57
2023-03-03T06:04:44.601Z,59.50
2023-03-03T06:07:34.444Z,48.43
2023-03-03T06:10:22.976Z,56.10
2023-03-03T06:13:11.512Z,46.50
2023-03-03T06:16:00.238Z,56.80
2023-03-03T06:18:49.163Z,50.00
2023-03-03T06:21:37.695Z,50.90
2023-03-03T06:24:30.196Z,51.53
2023-03-03T06:27:18.672Z,62.20
2023-03-03T06:30:08.469Z,57.50
2023-03-03T06:32:57.004Z,55.73
2023-03-03T06:35:47.549Z,50.70
2023-03-03T06:38:36.067Z,52.53
2023-03-03T06:41:25.986Z,55.10
2023-03-03T06:44:14.547Z,53.07
2023-03-03T06:47:03.549Z,55.27
2023-03-03T06:49:51.986Z,61.00
2023-03-03T06:52:40.649Z,55.20
2023-03-03T06:55:29.225Z,56.03
2023-03-03T06:58:20.533Z,57.00
2023-03-03T07:01:14.794Z,53.30
2023-03-03T07:04:06.047Z,47.90
2023-03-03T07:06:54.562Z,60.13
2023-03-03T07:09:45.420Z,51.30
2023-03-03T07:12:33.960Z,62.13
2023-03-03T07:15:26.071Z,54.50
2023-03-03T07:18:26.780Z,54.07
2023-03-03T07:21:20.025Z,51.50
2023-03-03T07:24:20.031Z,51.03
2023-03-03T07:27:13.417Z,54.43
2023-03-03T07:30:19.531Z,54.97
2023-03-03T07:33:21.247Z,53.63
2023-03-03T07:36:24.110Z,48.20
2023-03-03T07:39:26.448Z,55.80
2023-03-03T07:42:22.879Z,52.70
2023-03-03T07:45:23.872Z,53.70
2023-03-03T07:48:20.694Z,62.13
2023-03-03T07:51:15.160Z,53.00
2023-03-03T07:54:18.927Z,56.37
2023-03-03T07:57:16.358Z,52.60
2023-03-03T08:00:50.657Z,51.13
2023-03-03T08:03:40.653Z,51.10
2023-03-03T08:06:47.886Z,57.53
2023-03-03T08:09:43.564Z,49.37
2023-03-03T08:12:41.832Z,52.03
2023-03-03T08:15:33.299Z,53.30
2023-03-03T08:18:26.444Z,52.30
2023-03-03T08:21:17.222Z,52.03
2023-03-03T08:24:06.671Z,55.07
2023-03-03T08:26:55.187Z,48.60
2023-03-03T08:29:43.631Z,45.00
2023-03-03T08:32:32.246Z,50.33
2023-03-03T08:35:20.933Z,48.60
2023-03-03T08:38:11.991Z,49.83
2023-03-03T08:41:00.602Z,44.17
2023-03-03T08:43:49.103Z,47.10
2023-03-03T08:46:37.750Z,44.43
2023-03-03T08:49:26.261Z,42.80
2023-03-03T08:52:14.782Z,48.17
2023-03-03T08:55:04.800Z,48.53
2023-03-03T08:57:53.346Z,43.73
2023-03-03T09:00:42.052Z,47.37
2023-03-03T09:03:30.969Z,49.70
2023-03-03T09:06:19.444Z,47.57
2023-03-03T09:09:07.978Z,44.63
2023-03-03T09:12:00.556Z,39.17
2023-03-03T09:14:49.306Z,48.07
2023-03-03T09:17:38.669Z,38.37
2023-03-03T09:20:39.715Z,39.70
2023-03-03T09:23:35.676Z,41.57
2023-03-03T09:26:30.473Z,40.60
2023-03-03T09:29:26.358Z,37.83
2023-03-03T09:32:25.729Z,49.47
2023-03-03T09:35:37.508Z,41.13
2023-03-03T09:38:31.619Z,43.90
2023-03-03T09:41:41.447Z,36.80
2023-03-03T09:45:02.534Z,38.50
2023-03-03T09:48:14.804Z,41.77
2023-03-03T09:51:15.020Z,37.97
2023-03-03T09:54:16.540Z,37.07
2023-03-03T09:57:10.295Z,39.00
2023-03-03T10:00:16.228Z,36.73
2023-03-03T10:03:38.877Z,48.70
2023-03-03T10:06:29.969Z,57.90
2023-03-03T10:09:35.597Z,54.80
2023-03-03T10:12:28.402Z,56.80
2023-03-03T10:15:35.254Z,63.20
2023-03-03T10:18:33.559Z,57.40
2023-03-03T10:21:26.168Z,56.50
2023-03-03T10:24:25.048Z,49.97
2023-03-03T10:27:26.028Z,51.27
2023-03-03T10:30:33.239Z,58.13
2023-03-03T10:33:34.618Z,53.57
2023-03-03T10:36:34.095Z,49.40
2023-03-03T10:39:48.175Z,53.73
2023-03-03T10:42:47.007Z,50.30
2023-03-03T10:46:05.392Z,50.23
2023-03-03T10:49:07.276Z,43.10
2023-03-03T10:52:08.991Z,53.10
2023-03-03T10:55:25.187Z,46.83
2023-03-03T10:58:33.828Z,45.37
2023-03-03T11:01:30.400Z,45.23
2023-03-03T11:04:39.298Z,42.40
2023-03-03T11:07:30.273Z,42.63
2023-03-03T11:10:25.327Z,44.73
2023-03-03T11:13:24.066Z,44.20
2023-03-03T11:16:19.473Z,43.00
2023-03-03T11:19:20.818Z,54.67
2023-03-03T11:22:24.455Z,41.60
2023-03-03T11:25:21.466Z,40.93
2023-03-03T11:28:30.727Z,39.90
2023-03-03T11:31:22.675Z,38.60
2023-03-03T11:34:18.183Z,45.10
2023-03-03T11:37:09.863Z,39.10
2023-03-03T11:40:07.301Z,45.37
2023-03-03T11:43:02.720Z,45.83
2023-03-03T11:45:54.459Z,38.73
2023-03-03T11:48:48.395Z,42.10
2023-03-03T11:51:45.807Z,43.67
2023-03-03T11:54:39.415Z,45.97
2023-03-03T11:57:31.804Z,42.00
2023-03-03T12:00:25.573Z,43.60
2023-03-03T12:03:36.752Z,36.23
2023-03-03T12:06:31.383Z,40.20
2023-03-03T12:09:28.642Z,42.50
2023-03-03T12:12:20.435Z,42.47
2023-03-03T12:15:24.484Z,41.27
2023-03-03T12:18:33.169Z,39.50
2023-03-03T12:21:33.599Z,36.23
2023-03-03T12:24:33.973Z,43.20
2023-03-03T12:27:26.817Z,42.00
2023-03-03T12:30:24.298Z,39.30
2023-03-03T12:33:20.323Z,40.60
2023-03-03T12:36:18.168Z,40.00
2023-03-03T12:39:10.105Z,35.90
2023-03-03T12:42:05.242Z,40.53
2023-03-03T12:45:02.930Z,43.13
2023-03-03T12:47:58.056Z,35.60
2023-03-03T12:50:59.091Z,39.87
2023-03-03T12:53:59.246Z,39.57
2023-03-03T12:56:51.767Z,43.93
2023-03-03T12:59:46.075Z,39.10
2023-03-03T13:02:42.609Z,35.10
2023-03-03T13:05:39.351Z,35.90
2023-03-03T13:08:38.102Z,33.30
2023-03-03T13:11:47.318Z,39.30
2023-03-03T13:14:41.637Z,39.00
2023-03-03T13:17:33.540Z,35.23
2023-03-03T13:20:30.086Z,35.17
2023-03-03T13:23:32.168Z,35.43
2023-03-03T13:26:24.436Z,40.20
2023-03-03T13:29:18.194Z,40.60
2023-03-03T13:32:12.890Z,38.37
2023-03-03T13:35:04.283Z,40.47
2023-03-03T13:37:55.876Z,40.97
2023-03-03T13:40:47.550Z,41.17
2023-03-03T13:43:42.173Z,34.33
2023-03-03T13:46:36.758Z,40.40
2023-03-03T13:49:38.252Z,40.93
2023-03-03T13:52:29.164Z,40.60
2023-03-03T13:55:23.191Z,43.93
2023-03-03T13:58:23.558Z,37.67
2023-03-03T14:01:17.388Z,34.77
2023-03-03T14:04:15.318Z,38.80
2023-03-03T14:07:11.733Z,40.43
2023-03-03T14:10:04.598Z,44.07
2023-03-03T14:13:01.850Z,38.37
2023-03-03T14:15:57.019Z,40.63
2023-03-03T14:18:55.511Z,39.40
2023-03-03T14:21:50.833Z,42.50
2023-03-03T14:24:58.074Z,40.53
2023-03-03T14:28:02.194Z,44.57
2023-03-03T14:30:55.158Z,41.87
2023-03-03T14:33:44.727Z,39.67
2023-03-03T14:36:42.811Z,39.80
2023-03-03T14:39:34.472Z,40.90
2023-03-03T14:42:34.131Z,39.20
2023-03-03T14:45:31.907Z,45.20
2023-03-03T14:48:23.646Z,38.67
2023-03-03T14:51:27.196Z,44.80
2023-03-03T14:54:22.518Z,41.80
2023-03-03T14:57:16.378Z,41.67
2023-03-03T15:00:16.995Z,40.13
2023-03-03T15:03:23.408Z,38.43
2023-03-03T15:06:13.382Z,37.23
2023-03-03T15:09:29.715Z,41.17
2023-03-03T15:12:21.297Z,44.10
2023-03-03T15:15:19.075Z,37.80
2023-03-03T15:18:13.256Z,38.57
2023-03-03T15:21:06.344Z,45.80
2023-03-03T15:23:57.883Z,41.10
2023-03-03T15:26:49.133Z,38.50
2023-03-03T15:29:39.388Z,39.70
2023-03-03T15:32:31.255Z,41.37
2023-03-03T15:35:31.587Z,43.03
2023-03-03T15:38:29.386Z,44.53
2023-03-03T15:41:27.658Z,37.70
2023-03-03T15:44:20.367Z,45.23
2023-03-03T15:47:27.282Z,47.17
2023-03-03T15:50:30.878Z,43.97
2023-03-03T15:53:31.771Z,41.73
2023-03-03T15:56:27.386Z,36.10
2023-03-03T15:59:27.709Z,44.63
2023-03-03T16:02:18.577Z,43.67
2023-03-03T16:05:16.386Z,45.10
2023-03-03T16:08:13.600Z,44.50
2023-03-03T16:11:08.851Z,48.33
2023-03-03T16:14:05.955Z,38.43
2023-03-03T16:16:57.951Z,43.70
2023-03-03T16:19:50.748Z,43.40
2023-03-03T16:22:59.463Z,44.67
2023-03-03T16:25:59.562Z,42.90
2023-03-03T16:29:02.800Z,40.83
2023-03-03T16:31:54.592Z,41.10
2023-03-03T16:34:48.683Z,49.57
2023-03-03T16:37:39.951Z,40.30
2023-03-03T16:40:31.805Z,41.87
2023-03-03T16:43:24.412Z,41.00
2023-03-03T16:46:23.195Z,42.20
2023-03-03T16:49:17.405Z,41.90
2023-03-03T16:52:09.702Z,41.33
2023-03-03T16:55:01.140Z,41.67
2023-03-03T16:57:58.661Z,41.20
2023-03-03T17:00:53.138Z,42.23
2023-03-03T17:03:55.380Z,35.73
2023-03-03T17:06:48.931Z,39.27
2023-03-03T17:09:52.169Z,44.37
2023-03-03T17:12:52.217Z,43.03
2023-03-03T17:15:46.042Z,42.23
2023-03-03T17:18:41.999Z,46.27
2023-03-03T17:21:39.933Z,38.07
2023-03-03T17:24:37.683Z,41.47
2023-03-03T17:27:29.630Z,37.57
2023-03-03T17:30:22.525Z,40.40
2023-03-03T17:33:23.744Z,35.60
2023-03-03T17:36:27.429Z,46.93
2023-03-03T17:39:44.856Z,41.53
2023-03-03T17:42:38.815Z,39.63
2023-03-03T17:45:29.154Z,44.97
2023-03-03T17:48:40.135Z,48.83
2023-03-03T17:51:47.635Z,44.87
2023-03-03T17:54:50.841Z,44.50
2023-03-03T17:57:51.213Z,46.80
2023-03-03T18:00:48.504Z,46.10
2023-03-03T18:03:53.659Z,46.10
2023-03-03T18:07:11.905Z,51.87
2023-03-03T18:10:25.185Z,47.97
2023-03-03T18:13:22.528Z,44.47
2023-03-03T18:16:22.324Z,46.63
2023-03-03T18:19:27.482Z,45.10
2023-03-03T18:22:21.504Z,49.60
2023-03-03T18:25:11.990Z,50.60
2023-03-03T18:28:22.877Z,45.53
2023-03-03T18:31:22.838Z,52.70
2023-03-03T18:34:29.023Z,53.90
2023-03-03T18:37:37.073Z,53.70
2023-03-03T18:40:34.010Z,54.27
2023-03-03T18:43:52.167Z,55.13
2023-03-03T18:47:02.001Z,61.63
2023-03-03T18:49:57.581Z,50.57
2023-03-03T18:53:09.259Z,56.13
2023-03-03T18:55:59.283Z,54.80
2023-03-03T18:58:52.283Z,49.57
2023-03-03T19:01:43.790Z,59.00
2023-03-03T19:04:36.491Z,56.57
2023-03-03T19:07:29.953Z,63.60
2023-03-03T19:10:53.463Z,56.10
2023-03-03T19:13:47.931Z,48.93
2023-03-03T19:16:38.445Z,48.83
2023-03-03T19:19:32.630Z,46.50
2023-03-03T19:22:24.899Z,47.50
2023-03-03T19:25:32.686Z,47.93
2023-03-03T19:28:31.541Z,51.77
2023-03-03T19:31:27.036Z,56.30
2023-03-03T19:34:23.129Z,62.83
2023-03-03T19:37:24.230Z,47.87
2023-03-03T19:40:19.616Z,43.10
2023-03-03T19:43:16.379Z,50.40
2023-03-03T19:46:20.610Z,47.13
2023-03-03T19:49:18.354Z,45.53
2023-03-03T19:52:13.855Z,50.53
2023-03-03T19:55:24.475Z,50.33
2023-03-03T19:58:22.310Z,48.37
2023-03-03T20:01:17.544Z,46.03
2023-03-03T20:04:28.282Z,47.10
2023-03-03T20:07:29.132Z,47.30
2023-03-03T20:10:31.307Z,46.07
2023-03-03T20:13:35.093Z,50.20
2023-03-03T20:16:30.347Z,51.60
2023-03-03T20:19:31.092Z,57.43
2023-03-03T20:22:26.491Z,56.97
2023-03-03T20:25:26.756Z,55.20
2023-03-03T20:28:36.364Z,54.40
2023-03-03T20:31:30.692Z,53.07
2023-03-03T20:34:24.166Z,53.90
2023-03-03T20:37:17.397Z,59.17
2023-03-03T20:40:11.943Z,62.40
2023-03-03T20:43:08.347Z,54.47
2023-03-03T20:46:02.763Z,57.70
2023-03-03T20:49:04.267Z,53.60
2023-03-03T20:51:57.233Z,54.43
2023-03-03T20:54:50.629Z,58.67
2023-03-03T20:57:46.961Z,56.90
2023-03-03T21:00:39.569Z,53.37
2023-03-03T21:03:34.113Z,53.83
2023-03-03T21:06:25.582Z,56.37
2023-03-03T21:09:24.880Z,59.37
2023-03-03T21:12:28.839Z,58.83
2023-03-03T21:15:26.240Z,52.50
2023-03-03T21:18:22.109Z,57.67
2023-03-03T21:21:10.728Z,52.43
2023-03-03T21:23:59.669Z,55.43
2023-03-03T21:26:50.905Z,53.23
2023-03-03T21:29:40.765Z,64.77
2023-03-03T21:32:41.523Z,57.00
2023-03-03T21:35:30.204Z,63.17
2023-03-03T21:38:33.439Z,62.10
2023-03-03T21:41:22.243Z,51.07
2023-03-03T21:44:41.924Z,54.83
2023-03-03T21:47:30.504Z,57.63
2023-03-03T21:50:21.332Z,55.27
2023-03-03T21:53:09.851Z,54.30
2023-03-03T21:55:58.381Z,54.40
2023-03-03T21:58:46.933Z,49.80
2023-03-03T22:01:38.380Z,45.50
2023-03-03T22:04:27.473Z,43.07
2023-03-03T22:07:16.196Z,45.93
2023-03-03T22:10:05.158Z,45.17
2023-03-03T22:12:53.679Z,47.50
2023-03-03T22:15:42.247Z,48.70
2023-03-03T22:18:32.092Z,47.10
2023-03-03T22:21:20.641Z,49.53
2023-03-03T22:24:09.707Z,46.87
2023-03-03T22:26:58.216Z,45.17
2023-03-03T22:29:46.818Z,47.03
2023-03-03T22:32:35.346Z,50.00
2023-03-03T22:35:25.298Z,52.30
2023-03-03T22:38:13.859Z,47.73
2023-03-03T22:41:02.643Z,48.90
2023-03-03T22:43:51.168Z,50.57
2023-03-03T22:46:39.715Z,55.83
2023-03-03T22:49:28.807Z,52.20
2023-03-03T22:52:18.638Z,49.90
2023-03-03T22:55:08.366Z,49.27
2023-03-03T22:57:57.150Z,49.73
2023-03-03T23:00:45.643Z,57.47
2023-03-03T23:03:34.214Z,50.90
2023-03-03T23:06:22.788Z,50.73
2023-03-03T23:09:12.661Z,47.17
2023-03-03T23:12:01.919Z,50.27
2023-03-03T23:14:50.410Z,50.97
2023-03-03T23:17:38.871Z,50.50
2023-03-03T23:20:29.654Z,49.27
2023-03-03T23:23:18.098Z,51.10
2023-03-03T23:26:07.967Z,51.60
2023-03-03T23:28:56.594Z,47.30
2023-03-03T23:31:45.233Z,45.60
2023-03-03T23:34:33.991Z,46.90
2023-03-03T23:37:22.554Z,46.23
2023-03-03T23:40:12.555Z,46.50
2023-03-03T23:43:02.380Z,52.87
2023-03-03T23:45:50.904Z,47.80
2023-03-03T23:48:39.361Z,52.87
2023-03-03T23:51:27.847Z,44.47
2023-03-03T23:54:16.337Z,46.63
2023-03-03T23:57:07.870Z,46.37
2023-03-03T23:59:57.692Z,51.33
